Palm Beach International Airport
KPBI : now visible

Airfield :











YOU CAN JOIN US ON...

 
LOGIN :

Register | Disclaimer

   EN    FR    IT 

 









Legend :    VFR   Marginal VFR   IFR   Intensive IFR   Very Intensive IFR
Visi :
Ceiling :
>= 8 km
>= 3000ft
5 to 8 km
1000 to 3000 ft
1500m to 5 km
500 to 1000 ft
800 to 1500m
200 to 500 ft
< 800m
< 200 ft
Symbols :   Thunderstorms  Fog  Heavy snow  Heavy precipitations  Wind > 20 kt






- Airport Elevation : 19 ft
- IATA code : PBI


KPBI - Palm Beach International

CURRENT METAR :
  • 211953Z 30009KT 10SM SCT028 BKN065 BKN085 28/21 A2996 RMK AO2 SLP143 CB DSNT SE S T02780211

EXPIRED METARs :
  • 211853Z 27010KT 10SM SCT026 BKN055 BKN070 28/21 A2997 RMK AO2 SLP149 CB DSNT SE-S T02780206
  • 211753Z 27006KT 10SM SCT025 BKN032 BKN055 27/22 A3000 RMK AO2 SLP157 T02720217 10283 20228 58001

TAF KPBI
Valid from the 21 at 18:00 until the 22 at 18:00 UTC


211720Z 2118/2218 27008KT P6SM VCTS SCT025CB BKN050
FM212300 30007KT P6SM SCT025
FM220800 33010KT P6SM SCT050
FM221400 02010KT P6SM SCT040
KZMA FIR / North America



MET'MAP, your aeronautical weather chart ! - Copyright ORBIFLY December 2007 - Disclaimer

ORBIFLY MET'MAP TEAM :

Programming & Development : Alexandra Zaïnal
Concept & original design : Baudouin d'Aumeries
Assistance for programming : Marc-Olivier Méhu
Technical & hardware support : Manuel Goepfert

Contact : metmap@orbifly.com




SOURCES & CREDITS :

   NOAA       Earth
Advisory